createdAt,value
2023-07-18T00:05:02.105Z,100207.73
2023-07-18T00:10:05.249Z,100194.41
2023-07-18T00:15:10.783Z,100190.61
2023-07-18T00:20:15.130Z,100198.66
2023-07-18T00:25:20.765Z,100207.98
2023-07-18T00:30:23.810Z,100224.54
2023-07-18T00:35:28.270Z,100233.80
2023-07-18T00:40:31.090Z,100258.09
2023-07-18T00:45:33.816Z,100258.65
2023-07-18T00:50:37.752Z,100219.60
2023-07-18T00:55:41.447Z,100135.48
2023-07-18T01:00:44.203Z,100152.21
2023-07-18T01:05:46.888Z,100159.74
2023-07-18T01:10:50.011Z,100174.43
2023-07-18T01:15:53.142Z,100155.88
2023-07-18T01:20:56.458Z,100129.68
2023-07-18T01:25:59.205Z,100117.65
2023-07-18T01:31:01.943Z,100096.03
2023-07-18T01:36:04.898Z,100104.64
2023-07-18T01:41:08.648Z,100127.16
2023-07-18T01:46:11.397Z,100132.02
2023-07-18T01:51:14.781Z,100120.14
2023-07-18T01:56:17.533Z,100147.70
2023-07-18T02:01:20.514Z,100143.70
2023-07-18T02:06:26.245Z,100163.55
2023-07-18T02:11:29.015Z,100188.92
2023-07-18T02:16:32.004Z,100213.53
2023-07-18T02:21:34.749Z,100221.17
2023-07-18T02:26:37.701Z,100206.17
2023-07-18T02:31:40.956Z,100200.58
2023-07-18T02:36:43.752Z,100211.55
2023-07-18T02:41:46.427Z,100222.71
2023-07-18T02:46:49.265Z,100231.95
2023-07-18T02:51:51.926Z,100237.46
2023-07-18T02:56:54.682Z,100246.45
2023-07-18T03:02:00.326Z,100247.09
2023-07-18T03:07:04.366Z,100233.95
2023-07-18T03:12:07.797Z,100230.33
2023-07-18T03:17:12.565Z,100226.13
2023-07-18T03:22:15.961Z,100226.30
2023-07-18T03:27:19.452Z,100223.38
2023-07-18T03:32:22.189Z,100220.46
2023-07-18T03:37:26.949Z,100232.33
2023-07-18T03:42:29.659Z,100227.91
2023-07-18T03:47:32.724Z,100229.36
2023-07-18T03:52:35.552Z,100239.98
2023-07-18T03:57:38.848Z,100245.91
2023-07-18T04:02:47.189Z,100247.79
2023-07-18T04:07:50.516Z,100244.95
2023-07-18T04:12:53.335Z,100254.02
2023-07-18T04:17:56.077Z,100259.55
2023-07-18T04:22:59.233Z,100258.23
2023-07-18T04:28:02.442Z,100263.63
2023-07-18T04:33:05.119Z,100272.83
2023-07-18T04:38:07.908Z,100284.53
2023-07-18T04:43:11.097Z,100285.88
2023-07-18T04:48:18.321Z,100292.67
2023-07-18T04:53:21.058Z,100302.79
2023-07-18T04:58:28.452Z,100303.89
2023-07-18T05:03:41.007Z,100316.56
2023-07-18T05:08:55.221Z,100326.39
2023-07-18T05:13:58.100Z,100331.11
2023-07-18T05:19:00.742Z,100340.12
2023-07-18T05:24:03.669Z,100354.36
2023-07-18T05:29:06.385Z,100361.65
2023-07-18T05:34:09.077Z,100369.11
2023-07-18T05:39:12.500Z,100371.47
2023-07-18T05:44:17.776Z,100378.61
2023-07-18T05:49:20.577Z,100394.48
2023-07-18T05:54:23.970Z,100395.40
2023-07-18T05:59:31.793Z,100398.73
2023-07-18T06:04:36.425Z,100401.86
2023-07-18T06:09:39.877Z,100391.63
2023-07-18T06:14:42.636Z,100397.59
2023-07-18T06:19:47.683Z,100399.35
2023-07-18T06:24:50.547Z,100406.95
2023-07-18T06:29:53.554Z,100407.66
2023-07-18T06:34:58.591Z,100415.17
2023-07-18T06:40:04.104Z,100418.27
2023-07-18T06:45:08.168Z,100418.13
2023-07-18T06:50:12.555Z,100424.87
2023-07-18T06:55:15.277Z,100426.52
2023-07-18T07:00:21.373Z,100431.83
2023-07-18T07:05:24.154Z,100442.03
2023-07-18T07:10:27.175Z,100438.18
2023-07-18T07:15:29.897Z,100440.34
2023-07-18T07:20:34.082Z,100440.13
2023-07-18T07:25:36.822Z,100444.23
2023-07-18T07:30:39.754Z,100455.40
2023-07-18T07:35:44.612Z,100459.27
2023-07-18T07:40:47.341Z,100457.56
2023-07-18T07:45:50.132Z,100458.08
2023-07-18T07:50:52.849Z,100458.59
2023-07-18T07:55:55.598Z,100459.94
2023-07-18T08:00:58.321Z,100461.29
2023-07-18T08:06:01.823Z,100458.23
2023-07-18T08:11:04.980Z,100455.09
2023-07-18T08:16:07.792Z,100464.33
2023-07-18T08:21:10.535Z,100468.58
2023-07-18T08:26:13.806Z,100468.10
2023-07-18T08:31:16.585Z,100466.52
2023-07-18T08:36:19.396Z,100464.98
2023-07-18T08:41:23.018Z,100469.31
2023-07-18T08:46:27.197Z,100469.48
2023-07-18T08:51:31.854Z,100466.77
2023-07-18T08:56:34.660Z,100466.92
2023-07-18T09:01:52.561Z,100468.88
2023-07-18T09:07:04.080Z,100467.20
2023-07-18T09:12:07.543Z,100465.96
2023-07-18T09:17:10.512Z,100465.02
2023-07-18T09:22:15.211Z,100463.63
2023-07-18T09:27:21.184Z,100461.11
2023-07-18T09:32:24.886Z,100456.88
2023-07-18T09:37:28.604Z,100461.12
2023-07-18T09:42:33.493Z,100454.56
2023-07-18T09:47:37.213Z,100449.78
2023-07-18T09:52:51.551Z,100445.56
2023-07-18T09:57:56.395Z,100447.43
2023-07-18T10:02:59.780Z,100442.52
2023-07-18T10:08:07.805Z,100447.58
2023-07-18T10:13:10.637Z,100442.96
2023-07-18T10:18:18.348Z,100435.39
2023-07-18T10:23:40.291Z,100436.88
2023-07-18T10:28:47.748Z,100429.39
2023-07-18T10:34:07.261Z,100423.24
2023-07-18T10:39:15.546Z,100423.31
2023-07-18T10:44:18.292Z,100425.31
2023-07-18T10:49:26.864Z,100419.19
2023-07-18T10:54:29.628Z,100414.35
2023-07-18T10:59:32.409Z,100415.34
2023-07-18T11:04:35.146Z,100409.18
2023-07-18T11:09:38.263Z,100406.44
2023-07-18T11:14:41.732Z,100399.23
2023-07-18T11:19:45.092Z,100399.28
2023-07-18T11:24:47.956Z,100396.55
2023-07-18T11:30:01.822Z,100387.21
2023-07-18T11:35:07.786Z,100385.60
2023-07-18T11:40:11.723Z,100380.72
2023-07-18T11:45:24.646Z,100381.09
2023-07-18T11:50:30.285Z,100384.02
2023-07-18T11:55:33.684Z,100386.16
2023-07-18T12:00:37.774Z,100377.67
2023-07-18T12:05:40.530Z,100375.92
2023-07-18T12:10:50.213Z,100377.88
2023-07-18T12:15:59.427Z,100373.96
2023-07-18T12:21:02.316Z,100379.30
2023-07-18T12:26:05.153Z,100375.25
2023-07-18T12:31:09.659Z,100368.73
2023-07-18T12:36:14.119Z,100369.56
2023-07-18T12:41:18.713Z,100370.20
2023-07-18T12:46:27.861Z,100373.58
2023-07-18T12:51:30.735Z,100375.83
2023-07-18T12:56:34.926Z,100375.22
2023-07-18T13:01:39.028Z,100384.73
2023-07-18T13:06:41.856Z,100380.15
2023-07-18T13:11:45.739Z,100375.00
2023-07-18T13:16:48.724Z,100371.23
2023-07-18T13:21:52.008Z,100368.85
2023-07-18T13:26:54.872Z,100362.48
2023-07-18T13:31:57.757Z,100365.34
2023-07-18T13:37:00.693Z,100358.42
2023-07-18T13:42:04.101Z,100352.26
2023-07-18T13:47:07.468Z,100348.87
2023-07-18T13:52:10.519Z,100345.66
2023-07-18T13:57:13.261Z,100344.73
2023-07-18T14:02:16.145Z,100344.98
2023-07-18T14:07:19.506Z,100338.48
2023-07-18T14:12:22.236Z,100331.41
2023-07-18T14:17:26.119Z,100322.16
2023-07-18T14:22:30.669Z,100320.49
2023-07-18T14:27:33.776Z,100316.05
2023-07-18T14:32:39.696Z,100320.80
2023-07-18T14:37:42.567Z,100316.84
2023-07-18T14:42:45.937Z,100308.67
2023-07-18T14:47:48.970Z,100311.31
2023-07-18T14:52:51.716Z,100304.81
2023-07-18T14:57:54.585Z,100307.66
2023-07-18T15:02:57.408Z,100310.40
2023-07-18T15:08:00.346Z,100308.67
2023-07-18T15:13:03.863Z,100303.59
2023-07-18T15:18:07.385Z,100303.21
2023-07-18T15:23:10.287Z,100298.05
2023-07-18T15:28:16.308Z,100296.70
2023-07-18T15:33:25.528Z,100292.52
2023-07-18T15:38:29.800Z,100298.89
2023-07-18T15:43:33.387Z,100302.28
2023-07-18T15:48:37.433Z,100300.07
2023-07-18T15:53:40.245Z,100299.46
2023-07-18T15:58:43.002Z,100296.33
2023-07-18T16:03:45.854Z,100298.66
2023-07-18T16:08:49.042Z,100301.73
2023-07-18T16:13:53.491Z,100301.23
2023-07-18T16:18:59.975Z,100297.64
2023-07-18T16:24:03.125Z,100297.48
2023-07-18T16:29:05.937Z,100295.70
2023-07-18T16:34:08.729Z,100293.23
2023-07-18T16:39:11.495Z,100296.41
2023-07-18T16:44:14.840Z,100298.27
2023-07-18T16:49:17.678Z,100298.65
2023-07-18T16:54:20.731Z,100289.00
2023-07-18T16:59:23.576Z,100279.05
2023-07-18T17:04:26.514Z,100274.59
2023-07-18T17:09:29.399Z,100271.67
2023-07-18T17:14:32.151Z,100272.13
2023-07-18T17:19:39.477Z,100268.84
2023-07-18T17:24:52.565Z,100265.98
2023-07-18T17:29:55.384Z,100266.01
2023-07-18T17:34:58.237Z,100263.80
2023-07-18T17:40:02.146Z,100260.52
2023-07-18T17:45:06.357Z,100256.52
2023-07-18T17:50:09.518Z,100257.12
2023-07-18T17:55:12.809Z,100251.61
2023-07-18T18:00:16.035Z,100247.88
2023-07-18T18:05:46.778Z,100241.60
2023-07-18T18:10:49.955Z,100240.58
2023-07-18T18:16:06.497Z,100233.42
2023-07-18T18:21:12.214Z,100232.47
2023-07-18T18:26:15.109Z,100230.03
2023-07-18T18:31:18.099Z,100225.55
2023-07-18T18:36:24.134Z,100223.21
2023-07-18T18:41:27.372Z,100224.48
2023-07-18T18:46:30.181Z,100216.80
2023-07-18T18:51:33.402Z,100218.27
2023-07-18T18:56:37.769Z,100213.50
2023-07-18T19:01:40.639Z,100214.68
2023-07-18T19:06:44.462Z,100216.65
2023-07-18T19:11:47.198Z,100218.47
2023-07-18T19:16:50.062Z,100210.39
2023-07-18T19:21:52.854Z,100207.88
2023-07-18T19:26:58.083Z,100211.41
2023-07-18T19:32:01.585Z,100215.42
2023-07-18T19:37:05.675Z,100213.03
2023-07-18T19:42:08.563Z,100205.65
2023-07-18T19:47:11.615Z,100212.12
2023-07-18T19:52:15.243Z,100211.89
2023-07-18T19:57:18.205Z,100204.42
2023-07-18T20:02:21.221Z,100204.92
2023-07-18T20:07:24.106Z,100213.00
2023-07-18T20:12:26.846Z,100209.66
2023-07-18T20:17:29.669Z,100203.79
2023-07-18T20:22:32.447Z,100213.33
2023-07-18T20:27:38.747Z,100210.85
2023-07-18T20:32:41.964Z,100215.16
2023-07-18T20:37:47.790Z,100207.21
2023-07-18T20:42:52.103Z,100205.70
2023-07-18T20:47:55.086Z,100205.16
2023-07-18T20:52:57.968Z,100202.98
2023-07-18T20:58:01.053Z,100202.09
2023-07-18T21:03:05.217Z,100204.63
2023-07-18T21:08:08.200Z,100201.55
2023-07-18T21:13:11.141Z,100196.99
2023-07-18T21:18:14.021Z,100193.16
2023-07-18T21:23:16.901Z,100191.48
2023-07-18T21:28:19.696Z,100196.04
2023-07-18T21:33:22.834Z,100191.44
2023-07-18T21:38:26.109Z,100190.92
2023-07-18T21:43:29.034Z,100190.96
2023-07-18T21:48:32.034Z,100192.07
2023-07-18T21:53:35.515Z,100199.05
2023-07-18T21:58:38.386Z,100200.05
2023-07-18T22:03:41.543Z,100198.73
2023-07-18T22:08:44.433Z,100201.63
2023-07-18T22:13:48.647Z,100206.66
2023-07-18T22:18:51.589Z,100200.70
2023-07-18T22:23:54.841Z,100197.48
2023-07-18T22:28:57.963Z,100196.00
2023-07-18T22:34:00.668Z,100188.88
2023-07-18T22:39:04.730Z,100191.11
2023-07-18T22:44:07.599Z,100182.65
2023-07-18T22:49:10.787Z,100178.45
2023-07-18T22:54:13.537Z,100169.96
2023-07-18T22:59:16.267Z,100164.36
2023-07-18T23:04:18.992Z,100160.66
2023-07-18T23:09:21.859Z,100160.42
2023-07-18T23:14:25.100Z,100157.02
2023-07-18T23:19:27.866Z,100159.83
2023-07-18T23:24:31.081Z,100154.39
2023-07-18T23:29:33.858Z,100150.84
2023-07-18T23:34:36.954Z,100154.25
2023-07-18T23:39:39.688Z,100147.28
2023-07-18T23:44:43.255Z,100147.36
2023-07-18T23:49:46.037Z,100149.11
2023-07-18T23:54:49.175Z,100142.36
2023-07-18T23:59:51.919Z,100135.70
